Time;durP1;ratioP1;P1;durP2;ratioP2;P2;SDS_P1;SDS_P2;PMS_P1;PMS_P2;Temp;Humidity;BMP_temperature;BMP_pressure;BME280_temperature;BME280_humidity;BME280_pressure;Samples;Min_cycle;Max_cycle;Signal;HPM_P1;HPM_P2
2024/02/14 00:01:12;;;;;;;;;8.33;5.67;;;;;-144.24;100.00;101701.97;5074648;28;45377;-71
2024/02/14 00:03:38;;;;;;;;;5.00;5.00;;;;;-144.24;100.00;101405.47;5077577;28;66436;-72
2024/02/14 00:06:05;;;;;;;;;4.00;4.00;;;;;-144.24;100.00;101251.13;5073404;28;45424;-71
2024/02/14 00:08:31;;;;;;;;;5.33;5.33;;;;;-144.24;100.00;100727.22;5078148;28;46585;-73
2024/02/14 00:10:56;;;;;;;;;4.67;4.00;;;;;-144.24;100.00;100442.94;5057871;28;45321;-72
2024/02/14 00:13:21;;;;;;;;;5.67;5.67;;;;;-144.24;100.00;100028.78;5077892;28;66911;-70
2024/02/14 00:15:47;;;;;;;;;9.33;8.00;;;;;-144.24;100.00;99710.03;5078451;28;53676;-71
2024/02/14 00:18:13;;;;;;;;;6.67;5.00;;;;;-144.24;100.00;99178.22;5077696;28;63415;-70
2024/02/14 00:20:41;;;;;;;;;6.00;4.33;;;;;-144.24;100.00;98908.28;5078422;28;45666;-72
2024/02/14 00:23:06;;;;;;;;;5.00;5.00;;;;;-144.24;100.00;98658.63;5078268;28;45286;-70
2024/02/14 00:25:32;;;;;;;;;9.00;6.33;;;;;-144.24;100.00;98536.88;5078098;28;57765;-70
2024/02/14 00:28:00;;;;;;;;;5.33;5.33;;;;;-144.24;100.00;98295.38;5078358;28;49796;-70
2024/02/14 00:30:26;;;;;;;;;6.00;5.00;;;;;-144.24;100.00;98023.47;5060635;28;45583;-72
2024/02/14 00:32:51;;;;;;;;;5.00;5.00;;;;;-144.24;100.00;97848.94;5078302;28;45313;-71
2024/02/14 00:35:17;;;;;;;;;7.33;5.33;;;;;-144.24;100.00;97443.16;5077688;28;45303;-71
2024/02/14 00:37:42;;;;;;;;;7.00;5.00;;;;;-144.24;100.00;97337.66;5076869;28;53713;-72
2024/02/14 00:40:08;;;;;;;;;6.00;6.00;;;;;-144.24;100.00;97142.91;5077615;28;55331;-71
2024/02/14 00:42:34;;;;;;;;;5.67;5.67;;;;;-144.24;100.00;96885.25;5059815;28;45420;-71
2024/02/14 00:44:59;;;;;;;;;7.33;5.00;;;;;-144.24;100.00;96789.91;5077517;28;53492;-71
2024/02/14 00:47:24;;;;;;;;;6.67;5.33;;;;;-144.24;100.00;96992.78;5058500;28;72668;-71
2024/02/14 00:49:50;;;;;;;;;4.00;4.00;;;;;-144.24;100.00;96745.28;5077559;28;45426;-71
2024/02/14 00:52:16;;;;;;;;;6.00;6.00;;;;;-144.24;100.00;96264.56;5078346;28;45530;-72
2024/02/14 00:54:42;;;;;;;;;8.67;4.67;;;;;-144.24;100.00;96148.94;5077296;28;45430;-71
2024/02/14 00:57:07;;;;;;;;;8.00;5.00;;;;;-144.24;100.00;95933.97;5077458;28;46011;-71
2024/02/14 00:59:32;;;;;;;;;6.00;6.00;;;;;-144.24;100.00;95637.84;5076885;28;58687;-70
2024/02/14 01:01:59;;;;;;;;;9.67;6.00;;;;;-144.24;100.00;95414.78;5076871;28;45444;-72
2024/02/14 01:04:24;;;;;;;;;5.00;5.00;;;;;-144.24;100.00;95029.50;5077963;28;45326;-71
2024/02/14 01:06:51;;;;;;;;;6.67;5.00;;;;;-144.24;100.00;94895.69;5076971;28;45665;-71
2024/02/14 01:09:17;;;;;;;;;5.00;5.00;;;;;-144.24;100.00;94427.34;5077351;28;45313;-72
2024/02/14 01:11:42;;;;;;;;;5.00;5.00;;;;;-144.24;100.00;94380.72;5077342;28;45466;-70
2024/02/14 01:14:08;;;;;;;;;10.00;9.00;;;;;-144.24;100.00;94007.69;5076640;28;52187;-72
2024/02/14 01:16:33;;;;;;;;;6.33;6.33;;;;;-144.24;100.00;93691.47;5077137;28;46938;-70
2024/02/14 01:18:58;;;;;;;;;9.67;8.67;;;;;-144.24;100.00;93557.69;5076451;28;59236;-71
2024/02/14 01:21:24;;;;;;;;;5.33;5.33;;;;;-144.24;100.00;93227.31;5076214;28;53045;-71
2024/02/14 01:23:49;;;;;;;;;9.33;6.00;;;;;-144.24;100.00;93198.94;5076729;28;59415;-71
2024/02/14 01:26:14;;;;;;;;;5.67;5.67;;;;;-144.24;100.00;92976.00;5077024;28;61132;-72
2024/02/14 01:28:40;;;;;;;;;7.00;6.00;;;;;-144.24;100.00;93071.25;5077275;28;50850;-71
2024/02/14 01:31:05;;;;;;;;;6.00;5.00;;;;;-144.24;100.00;93030.72;5077707;28;45354;-71
2024/02/14 01:33:31;;;;;;;;;5.00;5.00;;;;;-144.24;100.00;92870.63;5077151;28;53275;-71
2024/02/14 01:35:57;;;;;;;;;10.00;6.33;;;;;-144.24;100.00;92811.84;5076631;28;50401;-70
2024/02/14 01:38:22;;;;;;;;;6.00;6.00;;;;;-144.24;100.00;92491.66;5076791;28;45331;-72
2024/02/14 01:40:48;;;;;;;;;5.00;4.33;;;;;-144.24;100.00;92546.38;5076988;28;45303;-72
2024/02/14 01:43:14;;;;;;;;;5.33;5.33;;;;;-144.24;100.00;92406.56;5076208;28;45425;-72
2024/02/14 01:45:40;;;;;;;;;9.00;5.00;;;;;-144.24;100.00;92349.84;5075934;28;45746;-72
2024/02/14 01:48:06;;;;;;;;;6.67;6.67;;;;;-144.24;100.00;92191.78;5077411;28;45288;-72
2024/02/14 01:50:31;;;;;;;;;6.00;6.00;;;;;-144.24;100.00;92262.69;5076373;28;45514;-70
2024/02/14 01:52:59;;;;;;;;;6.33;6.00;;;;;-144.24;100.00;92049.94;5076798;28;45320;-72
2024/02/14 01:55:24;;;;;;;;;6.00;6.00;;;;;-144.24;100.00;92060.06;5058650;28;47359;-72
2024/02/14 01:57:50;;;;;;;;;9.00;6.33;;;;;-144.24;100.00;91928.38;5076810;28;45468;-71
2024/02/14 02:00:17;;;;;;;;;8.67;7.33;;;;;-144.24;100.00;91879.75;5058981;28;45353;-72
2024/02/14 02:02:43;;;;;;;;;6.67;6.67;;;;;-144.24;100.00;91877.72;5058573;28;46000;-71
2024/02/14 02:05:09;;;;;;;;;5.00;5.00;;;;;-144.24;100.00;91843.28;5076163;28;46529;-72
2024/02/14 02:07:35;;;;;;;;;9.67;6.33;;;;;-144.24;100.00;91608.25;5076925;28;45288;-72
2024/02/14 02:10:00;;;;;;;;;9.67;7.00;;;;;-144.24;100.00;91697.41;5076447;28;45211;-71
2024/02/14 02:12:27;;;;;;;;;10.00;6.00;;;;;-144.24;100.00;91662.97;5077355;28;45530;-71
2024/02/14 02:14:53;;;;;;;;;6.00;6.00;;;;;-144.24;100.00;91733.88;5073916;28;47379;-71
2024/02/14 02:17:18;;;;;;;;;10.00;6.33;;;;;-144.24;100.00;91744.00;5073204;28;45457;-71
2024/02/14 02:19:44;;;;;;;;;7.00;6.00;;;;;-144.24;100.00;91709.56;5076591;28;45297;-71
2024/02/14 02:22:09;;;;;;;;;15.33;6.33;;;;;-144.24;100.00;91590.03;5076319;28;54117;-72
2024/02/14 02:24:35;;;;;;;;;5.00;5.00;;;;;-144.24;100.00;91561.66;5076521;28;47037;-71
2024/02/14 02:27:01;;;;;;;;;6.00;6.00;;;;;-144.24;100.00;91588.00;5076348;28;45311;-70
2024/02/14 02:29:27;;;;;;;;;9.00;7.00;;;;;-144.24;100.00;91541.41;5075670;28;45584;-71
2024/02/14 02:31:52;;;;;;;;;7.00;7.00;;;;;-144.24;100.00;91573.81;5075816;28;61825;-72
2024/02/14 02:34:17;;;;;;;;;4.33;4.00;;;;;-144.24;100.00;91594.09;5076689;28;45673;-70
2024/02/14 02:36:43;;;;;;;;;10.00;7.33;;;;;-144.24;100.00;91557.63;5076400;28;63772;-71
2024/02/14 02:39:09;;;;;;;;;7.00;5.33;;;;;-144.24;100.00;91523.19;5075979;28;45296;-71
2024/02/14 02:41:34;;;;;;;;;6.67;6.67;;;;;-144.24;100.00;91496.84;5076610;28;45336;-71
2024/02/14 02:44:01;;;;;;;;;7.00;7.00;;;;;-144.24;100.00;91602.19;5075958;28;46287;-71
2024/02/14 02:46:27;;;;;;;;;7.67;7.33;;;;;-144.24;100.00;91365.16;5076176;28;45362;-71
2024/02/14 02:48:54;;;;;;;;;7.00;7.00;;;;;-144.24;100.00;91509.00;5074898;28;45393;-70
2024/02/14 02:51:20;;;;;;;;;5.00;5.00;;;;;-144.24;100.00;91377.31;5075650;28;45354;-70
2024/02/14 02:53:45;;;;;;;;;5.67;5.67;;;;;-144.24;100.00;91545.47;5074796;28;46369;-71
2024/02/14 02:56:12;;;;;;;;;7.00;7.00;;;;;-144.24;100.00;91460.38;5073746;28;64145;-71
2024/02/14 02:58:38;;;;;;;;;9.33;7.00;;;;;-144.24;100.00;91466.44;5074994;28;45362;-70
2024/02/14 03:01:07;;;;;;;;;6.67;5.00;;;;;-144.24;100.00;91571.78;5071872;28;45554;-72
2024/02/14 03:03:33;;;;;;;;;6.00;4.33;;;;;-144.24;100.00;91034.97;5073955;28;45743;-70
2024/02/14 03:05:59;;;;;;;;;6.67;5.00;;;;;-144.24;100.00;90374.66;5073164;28;45430;-71
2024/02/14 03:08:25;;;;;;;;;6.00;4.33;;;;;-144.24;100.00;90297.69;5074880;28;45465;-71
2024/02/14 03:10:51;;;;;;;;;7.00;4.00;;;;;-144.24;100.00;90303.75;5075608;28;45628;-71
2024/02/14 03:13:17;;;;;;;;;9.00;6.00;;;;;-144.24;100.00;90328.06;5074363;28;45678;-71
2024/02/14 03:15:43;;;;;;;;;5.67;5.67;;;;;-144.24;100.00;90295.66;5057878;28;45448;-70
2024/02/14 03:18:09;;;;;;;;;6.00;6.00;;;;;-144.24;100.00;90202.50;5075809;28;45379;-71
2024/02/14 03:20:35;;;;;;;;;4.67;4.67;;;;;-144.24;100.00;90210.59;5071997;28;45691;-71
2024/02/14 03:23:03;;;;;;;;;9.00;4.67;;;;;-144.24;100.00;90147.81;5075611;28;46545;-71
2024/02/14 03:25:28;;;;;;;;;6.00;4.33;;;;;-144.24;100.00;89912.91;5075163;28;45443;-71
2024/02/14 03:27:54;;;;;;;;;7.00;6.33;;;;;-144.24;100.00;89744.81;5075293;28;57694;-72
2024/02/14 03:30:20;;;;;;;;;5.00;3.33;;;;;-144.24;100.00;89667.88;5075800;28;45445;-71
2024/02/14 03:32:46;;;;;;;;;6.67;6.67;;;;;-144.24;100.00;89599.03;5075561;28;45659;-72
2024/02/14 03:35:14;;;;;;;;;6.00;5.00;;;;;-144.24;100.00;89503.84;5075780;28;45882;-71
2024/02/14 03:37:47;;;;;;;;;5.00;5.00;;;;;-144.24;100.00;89254.78;5075019;28;45402;-71
2024/02/14 03:40:12;;;;;;;;;6.67;6.00;;;;;-144.24;100.00;89102.94;5074867;28;45477;-71
2024/02/14 03:42:40;;;;;;;;;5.00;5.00;;;;;-144.24;100.00;88959.19;5074557;28;71181;-71
2024/02/14 03:45:09;;;;;;;;;6.00;5.00;;;;;-144.24;100.00;88776.97;5076086;28;45356;-71
2024/02/14 03:47:35;;;;;;;;;7.67;5.67;;;;;-144.24;100.00;88615.03;5075468;28;45381;-70
2024/02/14 03:50:02;;;;;;;;;4.00;4.00;;;;;-144.24;100.00;88501.66;5075880;28;45481;-72
2024/02/14 03:52:27;;;;;;;;;6.00;4.67;;;;;-144.24;100.00;88343.75;5075200;28;46287;-71
2024/02/14 03:54:53;;;;;;;;;6.00;6.00;;;;;-144.24;100.00;88315.41;5075642;28;45548;-71
2024/02/14 03:57:18;;;;;;;;;9.00;7.00;;;;;-144.24;100.00;87999.63;5075322;28;45617;-71
2024/02/14 03:59:44;;;;;;;;;7.67;6.00;;;;;-144.24;100.00;88230.41;5073614;28;45546;-71
2024/02/14 04:02:09;;;;;;;;;6.00;5.33;;;;;-144.24;100.00;88104.91;5073874;28;46337;-71
2024/02/14 04:04:39;;;;;;;;;9.00;6.00;;;;;-144.24;100.00;87819.50;5074895;28;45196;-71
2024/02/14 04:07:05;;;;;;;;;7.67;6.67;;;;;-144.24;100.00;87781.03;5074198;28;45373;-72
2024/02/14 04:09:32;;;;;;;;;6.00;5.33;;;;;-144.24;100.00;87643.41;5078294;28;45566;-70
2024/02/14 04:11:58;;;;;;;;;6.00;4.33;;;;;-144.24;100.00;87402.56;5078317;28;45485;-71
2024/02/14 04:14:23;;;;;;;;;5.00;4.00;;;;;-144.24;100.00;87165.78;5077215;28;73021;-72
2024/02/14 04:16:48;;;;;;;;;7.00;4.67;;;;;-144.24;100.00;87044.34;5059853;28;67015;-71
2024/02/14 04:19:17;;;;;;;;;5.33;4.33;;;;;-144.24;100.00;86939.13;5077075;28;59086;-72
2024/02/14 04:21:42;;;;;;;;;5.33;4.33;;;;;-144.24;100.00;86623.47;5077942;28;47222;-71
2024/02/14 04:24:08;;;;;;;;;3.33;3.33;;;;;-144.24;100.00;86378.63;5078399;28;45346;-72
2024/02/14 04:26:34;;;;;;;;;5.00;3.00;;;;;-144.24;100.00;86295.66;5077579;28;45443;-72
2024/02/14 04:28:59;;;;;;;;;4.00;4.00;;;;;-144.24;100.00;86154.03;5077820;28;45619;-71
2024/02/14 04:31:26;;;;;;;;;4.00;3.67;;;;;-144.24;100.00;85874.84;5077162;28;75388;-71
2024/02/14 04:33:53;;;;;;;;;4.67;4.67;;;;;-144.24;100.00;85634.13;5078160;28;45487;-71
2024/02/14 04:36:19;;;;;;;;;4.00;4.00;;;;;-144.24;100.00;85373.16;5078826;28;45441;-71
2024/02/14 04:38:46;;;;;;;;;6.67;3.00;;;;;-144.24;100.00;85306.41;5078731;28;45605;-73
2024/02/14 04:41:11;;;;;;;;;5.33;5.00;;;;;-144.24;100.00;85098.06;5059848;28;46453;-72
2024/02/14 04:43:36;;;;;;;;;4.00;4.00;;;;;-144.24;100.00;85146.63;5077404;28;70294;-72
2024/02/14 04:46:06;;;;;;;;;5.00;5.00;;;;;-144.24;100.00;84903.91;5074908;28;45538;-72
2024/02/14 04:48:32;;;;;;;;;4.00;4.00;;;;;-144.24;100.00;84891.75;5078408;28;45324;-71
2024/02/14 04:50:57;;;;;;;;;4.00;4.00;;;;;-144.24;100.00;84796.69;5077886;28;45366;-71
2024/02/14 04:53:22;;;;;;;;;3.00;3.00;;;;;-144.24;100.00;84685.47;5077164;28;59588;-71
2024/02/14 04:55:47;;;;;;;;;10.00;6.00;;;;;-144.24;100.00;84594.44;5076804;28;65278;-72
2024/02/14 04:58:13;;;;;;;;;5.67;5.67;;;;;-144.24;100.00;84523.66;5078127;28;45326;-71
2024/02/14 05:00:38;;;;;;;;;7.00;6.00;;;;;-144.24;100.00;84372.00;5076201;28;67360;-72
2024/02/14 05:03:04;;;;;;;;;5.33;5.00;;;;;-144.24;100.00;84303.22;5077448;28;45350;-70
2024/02/14 05:05:30;;;;;;;;;6.33;6.33;;;;;-144.24;100.00;84060.56;5077536;28;45236;-72
2024/02/14 05:07:55;;;;;;;;;11.00;7.00;;;;;-144.24;100.00;83929.13;5077388;28;65354;-71
2024/02/14 05:10:20;;;;;;;;;8.33;7.00;;;;;-144.24;100.00;83878.56;5077630;28;46565;-70
2024/02/14 05:12:46;;;;;;;;;6.00;6.00;;;;;-144.24;100.00;84113.16;5076594;28;72652;-71
2024/02/14 05:15:12;;;;;;;;;10.67;7.00;;;;;-144.24;100.00;83876.56;5077514;28;45349;-70
2024/02/14 05:17:37;;;;;;;;;8.33;7.00;;;;;-144.24;100.00;83704.69;5078145;28;45451;-72
2024/02/14 05:20:08;;;;;;;;;6.00;6.00;;;;;-144.24;100.00;83813.88;5076145;28;46780;-71
2024/02/14 05:22:38;;;;;;;;;5.00;4.00;;;;;-144.24;100.00;83377.13;5077465;28;45450;-71
2024/02/14 05:25:04;;;;;;;;;9.33;6.00;;;;;-144.24;100.00;83375.13;5077822;28;45391;-70
2024/02/14 05:27:30;;;;;;;;;12.00;6.00;;;;;-144.24;100.00;83290.19;5077584;28;45452;-71
2024/02/14 05:29:56;;;;;;;;;6.00;6.00;;;;;-144.24;100.00;83358.94;5077413;28;46088;-71
2024/02/14 05:32:21;;;;;;;;;4.67;4.67;;;;;-144.24;100.00;83320.53;5077405;28;45279;-71
2024/02/14 05:34:46;;;;;;;;;6.00;6.00;;;;;-144.24;100.00;83282.09;5074760;28;66924;-71
2024/02/14 05:37:11;;;;;;;;;8.67;7.00;;;;;-144.24;100.00;83106.22;5076591;28;66332;-71
2024/02/14 05:39:37;;;;;;;;;7.00;5.67;;;;;-144.24;100.00;82845.44;5076052;28;68981;-72
2024/02/14 05:42:04;;;;;;;;;9.00;9.00;;;;;-144.24;100.00;82538.16;5077737;28;46147;-72
2024/02/14 05:44:30;;;;;;;;;5.00;5.00;;;;;-144.24;100.00;82281.47;5077410;28;45411;-71
2024/02/14 05:46:55;;;;;;;;;5.67;3.33;;;;;-144.24;100.00;82133.91;5077053;28;45348;-71
2024/02/14 05:49:21;;;;;;;;;7.00;7.00;;;;;-144.24;100.00;82014.66;5076625;28;45716;-71
2024/02/14 05:51:47;;;;;;;;;5.67;4.67;;;;;-144.24;100.00;81812.56;5075693;28;45260;-70
2024/02/14 05:54:12;;;;;;;;;5.67;5.67;;;;;-144.24;100.00;81758.00;5068102;28;66839;-71
2024/02/14 05:56:37;;;;;;;;;5.00;5.00;;;;;-144.24;100.00;81636.72;5075556;28;63112;-71
2024/02/14 05:59:03;;;;;;;;;7.00;6.00;;;;;-144.24;100.00;81254.78;5072028;28;46578;-71
2024/02/14 06:01:28;;;;;;;;;6.00;4.00;;;;;-144.24;100.00;81018.38;5074010;28;51093;-72
2024/02/14 06:03:54;;;;;;;;;6.00;6.00;;;;;-144.24;100.00;80836.53;5076652;28;45535;-71
2024/02/14 06:06:19;;;;;;;;;6.00;6.00;;;;;-144.24;100.00;80618.31;5076625;28;45645;-72
2024/02/14 06:08:44;;;;;;;;;6.00;4.00;;;;;-144.24;100.00;80547.59;5075450;28;74453;-72
2024/02/14 06:11:10;;;;;;;;;5.67;5.67;;;;;-144.24;100.00;80173.84;5076766;28;45426;-71
2024/02/14 06:13:38;;;;;;;;;7.00;5.67;;;;;-144.24;100.00;80004.16;5076102;28;63702;-72
2024/02/14 06:16:04;;;;;;;;;7.33;5.33;;;;;-144.24;100.00;79842.53;5069815;28;45503;-72
2024/02/14 06:18:29;;;;;;;;;5.67;5.67;;;;;-144.24;100.00;79880.91;5076686;28;46410;-71
2024/02/14 06:20:55;;;;;;;;;5.00;5.00;;;;;-144.24;100.00;79836.47;5076479;28;45442;-70
2024/02/14 06:23:20;;;;;;;;;6.67;6.33;;;;;-144.24;100.00;79755.69;5076526;28;46316;-72
2024/02/14 06:25:45;;;;;;;;;5.33;5.33;;;;;-144.24;100.00;79729.41;5076107;28;55386;-71
2024/02/14 06:28:11;;;;;;;;;7.00;7.00;;;;;-144.24;100.00;79741.53;5075981;28;60179;-71
2024/02/14 06:30:36;;;;;;;;;5.67;5.67;;;;;-144.24;100.00;79549.66;5076073;28;52544;-72
2024/02/14 06:33:02;;;;;;;;;9.33;6.67;;;;;-144.24;100.00;79632.47;5076118;28;45503;-70
2024/02/14 06:35:28;;;;;;;;;7.67;6.00;;;;;-144.24;100.00;78004.72;5076605;28;45612;-70
2024/02/14 06:37:53;;;;;;;;;6.67;6.33;;;;;-144.24;100.00;77936.06;5076335;28;46483;-72
2024/02/14 06:40:19;;;;;;;;;6.00;6.00;;;;;-144.24;100.00;77518.16;5067185;28;45441;-71
2024/02/14 06:42:44;;;;;;;;;5.00;5.00;;;;;-144.24;100.00;77423.25;5075486;28;47105;-72
2024/02/14 06:45:09;;;;;;;;;6.00;6.00;;;;;-144.24;100.00;77330.41;5075942;28;50741;-72
2024/02/14 06:47:35;;;;;;;;;4.67;4.67;;;;;-144.24;100.00;77425.28;5075767;28;45368;-70
2024/02/14 06:50:00;;;;;;;;;5.67;5.67;;;;;-144.24;100.00;76841.88;5057965;28;45973;-71
2024/02/14 06:52:26;;;;;;;;;8.33;6.33;;;;;-144.24;100.00;76763.16;5075320;28;56936;-72
2024/02/14 06:54:51;;;;;;;;;8.00;6.00;;;;;-144.24;100.00;76615.81;5075244;28;45671;-71
2024/02/14 06:57:17;;;;;;;;;5.00;5.00;;;;;-144.24;100.00;76434.16;5075543;28;45746;-71
2024/02/14 06:59:43;;;;;;;;;5.67;5.00;;;;;-144.24;100.00;76240.41;5058007;28;45635;-71
2024/02/14 07:02:08;;;;;;;;;4.67;3.67;;;;;-144.24;100.00;76085.00;5075607;28;45348;-72
2024/02/14 07:04:33;;;;;;;;;5.67;5.00;;;;;-144.24;100.00;75810.56;5076332;28;45350;-71
2024/02/14 07:07:00;;;;;;;;;7.67;5.00;;;;;-144.24;100.00;75344.41;5072129;28;60015;-71
2024/02/14 07:09:25;;;;;;;;;6.67;5.00;;;;;-144.24;100.00;75100.28;5057626;28;45490;-71
2024/02/14 07:11:53;;;;;;;;;8.00;6.33;;;;;-144.24;100.00;74878.34;5075453;28;45459;-72
2024/02/14 07:14:19;;;;;;;;;6.67;6.67;;;;;-144.24;100.00;74569.66;5075713;28;45433;-71
2024/02/14 07:16:44;;;;;;;;;6.00;6.00;;;;;-144.24;100.00;74016.94;5075642;28;46487;-71
2024/02/14 07:19:09;;;;;;;;;7.67;6.67;;;;;-144.24;100.00;73897.94;5075769;28;45395;-72
2024/02/14 07:21:37;;;;;;;;;7.00;7.00;;;;;-144.24;100.00;73647.84;5075670;28;51327;-71
2024/02/14 07:24:03;;;;;;;;;7.00;7.00;;;;;-144.24;100.00;73591.38;5076027;28;45454;-71
2024/02/14 07:26:29;;;;;;;;;8.00;7.00;;;;;-144.24;100.00;73559.09;5075776;28;47431;-71
2024/02/14 07:28:54;;;;;;;;;7.67;6.00;;;;;-144.24;100.00;73421.94;5075206;28;65961;-72
2024/02/14 07:31:20;;;;;;;;;6.00;6.00;;;;;-144.24;100.00;73452.19;5073127;28;45334;-70
2024/02/14 07:33:46;;;;;;;;;10.00;7.33;;;;;-144.24;100.00;73468.34;5067280;28;47181;-71
2024/02/14 07:36:12;;;;;;;;;9.33;7.00;;;;;-144.24;100.00;73448.16;5073004;28;45806;-70
2024/02/14 07:38:37;;;;;;;;;7.00;7.00;;;;;-144.24;100.00;73179.94;5068172;28;45173;-69
2024/02/14 07:41:02;;;;;;;;;5.00;5.00;;;;;-144.24;100.00;73016.59;5057417;28;46300;-69
2024/02/14 07:43:28;;;;;;;;;6.33;6.33;;;;;-144.24;100.00;73056.94;5077963;28;45288;-71
2024/02/14 07:45:53;;;;;;;;;6.33;5.00;;;;;-144.24;100.00;72827.03;5078468;28;45538;-68
2024/02/14 07:48:19;;;;;;;;;8.33;7.00;;;;;-144.24;100.00;72780.66;5078737;28;45414;-69
2024/02/14 07:50:44;;;;;;;;;8.00;6.33;;;;;-144.24;100.00;72857.28;5078587;28;45341;-69
2024/02/14 07:53:09;;;;;;;;;12.00;7.67;;;;;-144.24;100.00;73095.25;5078228;28;48598;-68
2024/02/14 07:55:35;;;;;;;;;6.67;6.67;;;;;-144.24;100.00;73290.84;5078568;28;45634;-69
2024/02/14 07:58:00;;;;;;;;;8.33;8.33;;;;;-144.24;100.00;73067.00;5078820;28;45318;-69
2024/02/14 08:00:25;;;;;;;;;8.67;7.00;;;;;-144.24;100.00;73300.94;5075001;28;54428;-69
2024/02/14 08:05:17;;;;;;;;;7.33;7.33;;;;;-144.24;100.00;73952.41;5067897;28;75283;-68
2024/02/14 08:07:42;;;;;;;;;5.00;5.00;;;;;-144.24;100.00;74265.06;5078249;28;45512;-69
2024/02/14 08:10:08;;;;;;;;;5.00;5.00;;;;;-144.24;100.00;74525.28;5078859;28;45394;-70
2024/02/14 08:12:34;;;;;;;;;6.00;5.00;;;;;-144.24;100.00;74579.75;5078186;28;45467;-72
2024/02/14 08:15:04;;;;;;;;;7.00;6.00;;;;;-144.24;100.00;74642.31;5078689;28;46635;-72
2024/02/14 08:17:29;;;;;;;;;9.00;6.00;;;;;-144.24;100.00;74501.09;5077383;28;45485;-72
2024/02/14 08:19:54;;;;;;;;;8.00;4.33;;;;;-144.24;100.00;74727.03;5078370;28;45319;-72
2024/02/14 08:22:20;;;;;;;;;6.67;6.00;;;;;-144.24;100.00;74706.84;5077781;28;50068;-71
2024/02/14 08:24:46;;;;;;;;;7.00;6.00;;;;;-144.24;100.00;74517.22;5077986;28;47238;-71
2024/02/14 08:27:11;;;;;;;;;5.33;5.33;;;;;-144.24;100.00;74257.00;5078159;28;45301;-72
2024/02/14 08:29:37;;;;;;;;;7.00;5.00;;;;;-144.24;100.00;73819.28;5078292;28;45346;-72
2024/02/14 08:32:03;;;;;;;;;8.00;5.00;;;;;-144.24;100.00;73599.44;5078611;28;45343;-72
2024/02/14 08:34:29;;;;;;;;;5.00;5.00;;;;;-144.24;100.00;73369.50;5078462;28;46244;-72
2024/02/14 08:36:54;;;;;;;;;4.00;4.00;;;;;-144.24;100.00;72849.22;5077902;28;45280;-72
2024/02/14 08:39:19;;;;;;;;;5.67;4.67;;;;;-144.24;100.00;72627.41;5076689;28;45456;-71
2024/02/14 08:41:46;;;;;;;;;4.00;2.00;;;;;-144.24;100.00;72220.13;5078208;28;45507;-72
2024/02/14 08:44:15;;;;;;;;;6.00;6.00;;;;;-144.24;100.00;71599.19;5050768;28;47658;-73
2024/02/14 08:46:42;;;;;;;;;5.00;5.00;;;;;-144.24;100.00;71067.03;5078472;28;45331;-72
2024/02/14 08:49:08;;;;;;;;;5.00;4.00;;;;;-144.24;100.00;70788.88;5078281;28;45292;-73
2024/02/14 08:51:36;;;;;;;;;5.00;5.00;;;;;-144.24;100.00;70347.50;5077701;28;45561;-72
2024/02/14 08:54:05;;;;;;;;;6.00;4.00;;;;;-144.24;100.00;69972.69;5077146;28;50537;-73
2024/02/14 08:56:33;;;;;;;;;5.67;3.33;;;;;-144.24;100.00;69489.09;5077863;28;45692;-73
2024/02/14 08:59:00;;;;;;;;;4.00;3.00;;;;;-144.24;100.00;68894.78;5077302;28;45427;-72
2024/02/14 09:01:26;;;;;;;;;6.00;3.67;;;;;-144.24;100.00;68604.69;5075489;28;45517;-73
2024/02/14 09:03:51;;;;;;;;;5.00;3.67;;;;;-144.24;100.00;68169.63;5075100;28;46358;-71
2024/02/14 09:06:20;;;;;;;;;3.33;3.33;;;;;-144.24;100.00;67724.50;5077605;28;45356;-71
2024/02/14 09:08:45;;;;;;;;;3.00;3.00;;;;;-144.24;100.00;67386.19;5077419;28;45391;-72
2024/02/14 09:11:12;;;;;;;;;4.00;2.67;;;;;-144.24;100.00;67100.25;5076623;28;63815;-73
2024/02/14 09:13:37;;;;;;;;;2.00;2.00;;;;;-144.24;100.00;66880.78;5077403;28;47529;-72
2024/02/14 09:16:03;;;;;;;;;2.00;2.00;;;;;-144.24;100.00;66590.84;5077623;28;45330;-74
2024/02/14 09:18:31;;;;;;;;;1.00;1.00;;;;;-144.24;100.00;66143.91;5078115;28;45455;-71
2024/02/14 09:20:56;;;;;;;;;1.33;1.33;;;;;-144.24;100.00;65813.75;5077320;28;45685;-72
2024/02/14 09:23:22;;;;;;;;;3.00;3.00;;;;;-144.24;100.00;65703.03;5076583;28;46885;-72
2024/02/14 09:25:48;;;;;;;;;2.00;2.00;;;;;-144.24;100.00;65304.50;5077372;28;45493;-73
2024/02/14 09:28:15;;;;;;;;;2.00;2.00;;;;;-144.24;100.00;65159.59;5077677;28;45490;-72
2024/02/14 09:30:41;;;;;;;;;4.67;3.00;;;;;-144.24;100.00;64988.53;5077573;28;45596;-73
2024/02/14 09:33:06;;;;;;;;;3.00;2.00;;;;;-144.24;100.00;64690.69;5076808;28;46455;-73
2024/02/14 09:35:31;;;;;;;;;3.00;3.00;;;;;-144.24;100.00;64390.84;5077512;28;45403;-72
2024/02/14 09:37:57;;;;;;;;;3.00;1.00;;;;;-144.24;100.00;64207.75;5076875;28;53861;-71
2024/02/14 09:40:23;;;;;;;;;9.67;8.00;;;;;-144.24;100.00;64087.00;5069799;28;56217;-72
2024/02/14 09:43:03;;;;;;;;;3.00;2.00;;;;;-144.24;100.00;63495.50;5077521;28;45752;-73
2024/02/14 09:45:31;;;;;;;;;1.67;1.33;;;;;-144.24;100.00;63465.31;5052695;28;45571;-72
2024/02/14 09:47:57;;;;;;;;;3.00;1.00;;;;;-144.24;100.00;63352.66;5076968;28;45365;-72
2024/02/14 09:50:23;;;;;;;;;1.00;1.00;;;;;-144.24;100.00;63093.16;5077662;28;45445;-72
2024/02/14 09:52:49;;;;;;;;;1.00;1.00;;;;;-144.24;100.00;62910.13;5075396;28;45692;-72
2024/02/14 09:55:15;;;;;;;;;3.33;2.00;;;;;-144.24;100.00;62656.69;5077048;28;45354;-72
2024/02/14 09:57:45;;;;;;;;;1.33;0.67;;;;;-144.24;100.00;62439.44;5076532;28;45238;-72
2024/02/14 10:00:11;;;;;;;;;1.00;1.00;;;;;-144.24;100.00;62079.44;5076279;28;45433;-72
2024/02/14 10:02:37;;;;;;;;;2.33;1.33;;;;;-144.24;100.00;61988.97;5076649;28;46650;-74
2024/02/14 10:05:03;;;;;;;;;4.67;1.33;;;;;-144.24;100.00;61783.84;5076056;28;45475;-72
2024/02/14 10:07:29;;;;;;;;;2.33;2.33;;;;;-144.24;100.00;61578.72;5076710;28;45367;-72
2024/02/14 10:09:54;;;;;;;;;2.00;2.00;;;;;-144.24;100.00;61347.50;5076450;28;48695;-73
2024/02/14 10:12:20;;;;;;;;;2.00;2.00;;;;;-144.24;100.00;61031.81;5075537;28;58724;-72
2024/02/14 10:14:45;;;;;;;;;3.33;2.33;;;;;-144.24;100.00;60627.72;5079453;28;45237;-72
2024/02/14 10:17:19;;;;;;;;;2.00;2.00;;;;;-144.24;100.00;60052.81;5079032;28;45514;-73
2024/02/14 10:19:56;;;;;;;;;4.00;3.00;;;;;-144.24;100.00;59642.78;5077621;28;53454;-72
2024/02/14 10:22:21;;;;;;;;;4.00;2.00;;;;;-144.24;100.00;60219.66;5076510;28;46144;-72
2024/02/14 10:24:47;;;;;;;;;1.00;1.00;;;;;-144.24;100.00;61033.84;5076963;28;45470;-72
2024/02/14 10:27:12;;;;;;;;;2.00;2.00;;;;;-144.24;100.00;60774.47;5076747;28;45205;-72
2024/02/14 10:29:37;;;;;;;;;1.33;1.33;;;;;-144.24;100.00;60637.78;5076436;28;46810;-73
2024/02/14 10:32:04;;;;;;;;;2.00;2.00;;;;;-144.24;100.00;60386.50;5076505;28;49577;-71
2024/02/14 10:34:30;;;;;;;;;2.00;1.33;;;;;-144.24;100.00;60219.66;5076342;28;45446;-71
2024/02/14 10:36:57;;;;;;;;;1.00;1.00;;;;;-144.24;100.00;59773.41;5075095;28;50661;-72
2024/02/14 10:39:25;;;;;;;;;4.67;2.00;;;;;-144.24;100.00;59451.84;5076477;28;45357;-71
2024/02/14 10:41:51;;;;;;;;;1.00;1.00;;;;;-144.24;100.00;59252.88;5076561;28;46164;-72
2024/02/14 10:44:16;;;;;;;;;2.00;1.00;;;;;-144.24;100.00;58650.03;5076349;28;45474;-72
2024/02/14 10:46:43;;;;;;;;;4.33;3.33;;;;;-144.24;100.00;58692.25;5076030;28;52340;-72
2024/02/14 10:49:11;;;;;;;;;3.00;2.00;;;;;-144.24;100.00;58537.53;5058521;28;45616;-74
2024/02/14 10:51:38;;;;;;;;;2.00;2.00;;;;;-144.24;100.00;58330.56;5032993;28;45618;-71
2024/02/14 10:54:10;;;;;;;;;2.00;2.00;;;;;-144.24;100.00;58137.69;5057621;28;46282;-71
2024/02/14 10:56:42;;;;;;;;;4.33;3.00;;;;;-144.24;100.00;57952.88;5172800;22;45356;-72
2024/02/14 10:59:08;;;;;;;;;2.00;2.00;;;;;-144.24;100.00;57978.97;5055221;28;45524;-73
2024/02/14 11:01:34;;;;;;;;;3.33;2.00;;;;;-144.24;100.00;57858.44;5055823;28;46530;-72
2024/02/14 11:04:01;;;;;;;;;5.00;2.00;;;;;-144.24;100.00;58021.16;5055649;28;45449;-73
2024/02/14 11:06:26;;;;;;;;;4.00;3.00;;;;;-144.24;100.00;58045.28;5053590;28;45328;-72